CG Escanaba — NNAS — position and weather

sailwx.info

Track history (hours):
 
Tides and Currents Weather Stations Pressure Air Temp Water Temp Dewpoint Dewpoint Depression Visibility Wind Speed Wind Dir Waves Ship Positions

CG Escanaba

Last reported at 2018-May-11 14:55 UTC. Time now 2018-May-21 06:56 UTC.
Position N 42°21' W 071°02'.
Warning: this ship's position is 9 days out of date.

Length 82 m; draft 4.3 m.

Type: Law enforcement. MMSI: 367262000.

Date/timePositionNaut miles runAvg speedWind from/ knotsBaromVisibWave heightAir tempDewpointWater temp
2018-May-11 14:55N 42°21' W 071°02'2 4.5
2018-May-11 14:30N 42°20' W 070°60'4 7.8
2018-May-11 14:00N 42°22' W 070°55'4 9.0
2018-May-11 13:30N 42°24' W 070°50'4310.5
2018-May-11 09:24N 42°23' W 069°51'6 8.3
2018-May-11 08:42N 42°26' W 069°44'2 7.5
2018-May-11 08:24N 42°25' W 069°47'40 5.2
2018-May-11 00:44N 41°45' W 069°37'3 8.8
2018-May-11 00:23N 41°43' W 069°35'11 9.2
2018-May-10 23:09N 41°32' W 069°28'188 7.3
2018-May-09 21:37N 39°51' W 072°56'7 9.5
2018-May-09 20:53N 39°47' W 073°04'812.2
2018-May-09 20:12N 39°42' W 073°13'31 9.0
2018-May-09 16:48N 39°26' W 073°46'1610.5
2018-May-09 15:19N 39°19' W 074°04'512.6
2018-May-09 14:54N 39°14' W 074°05'712.4
2018-May-09 14:20N 39°07' W 074°04'411.8
2018-May-09 13:59N 39°03' W 074°03'3 6.7
2018-May-09 13:29N 39°00' W 074°06'1 1.3
2018-May-09 13:00N 38°60' W 074°06'2 4.6
2018-May-09 12:28N 38°58' W 074°08'510.1
2018-May-09 11:59N 38°56' W 074°13'612.8
2018-May-09 11:30N 38°54' W 074°21'612.2
2018-May-09 11:00N 38°48' W 074°23'610.2
2018-May-09 10:26N 38°43' W 074°24'2511.6
2018-May-09 08:16N 38°18' W 074°30'311.4
2018-May-09 08:00N 38°15' W 074°31'94 9.6
2018-May-08 22:15N 37°01' W 075°44'411.8
2018-May-08 21:55N 36°58' W 075°47'511.3
2018-May-08 21:30N 36°56' W 075°52'611.8
2018-May-08 21:00N 36°56' W 075°60'612.2
2018-May-08 20:30N 36°58' W 076°07'2 3.6
2018-May-08 19:58N 36°58' W 076°09'0 0.0
2018-May-08 19:28N 36°58' W 076°09'0 0.0
2018-May-08 18:58N 36°58' W 076°09'0 0.0
2018-May-08 18:22N 36°58' W 076°09'0 0.0
2018-May-08 17:58N 36°58' W 076°09'0 0.0
2018-May-08 17:28N 36°58' W 076°09'0 0.1
2018-May-08 16:58N 36°58' W 076°09'0 0.0
2018-May-08 14:13N 36°58' W 076°09'0 0.0
2018-May-08 14:01N 36°58' W 076°09'0 0.0
2018-May-08 13:28N 36°58' W 076°09'0 0.0
2018-May-08 12:58N 36°58' W 076°09'0 0.0
2018-May-08 11:43N 36°58' W 076°09'0 0.0
2018-May-08 11:22N 36°58' W 076°09'0 0.0
2018-May-08 10:58N 36°58' W 076°09'0 0.0
2018-May-08 10:28N 36°58' W 076°09'0 0.0
2018-May-08 07:07N 36°58' W 076°09'0 0.1
2018-May-08 06:58N 36°58' W 076°09'0 0.0
2018-May-08 06:16N 36°58' W 076°09'0 0.0
2018-May-08 05:52N 36°58' W 076°09'0 0.0
2018-May-08 05:28N 36°58' W 076°09'0 0.0
2018-May-08 04:37N 36°58' W 076°09'0 0.0
2018-May-08 04:22N 36°58' W 076°09'0 0.0
2018-May-07 23:55N 36°58' W 076°09'0 0.0
2018-May-07 23:28N 36°58' W 076°09'0 0.0
2018-May-07 22:58N 36°58' W 076°09'0 0.0
2018-May-07 22:28N 36°58' W 076°09'0 0.0
2018-May-07 21:58N 36°58' W 076°09'0 0.0
2018-May-07 21:28N 36°58' W 076°09'0 0.0
2018-May-07 20:58N 36°58' W 076°09'0 0.0
2018-May-07 20:28N 36°58' W 076°09'0 0.0
2018-May-07 19:55N 36°58' W 076°09'0 0.0
2018-May-07 19:28N 36°58' W 076°09'0 0.0
2018-May-07 18:58N 36°58' W 076°09'0 0.0
2018-May-07 18:25N 36°58' W 076°09'0 0.0
2018-May-07 17:58N 36°58' W 076°09'0 0.0
2018-May-07 17:28N 36°58' W 076°09'0 0.0
2018-May-07 16:58N 36°58' W 076°09'0 0.0
2018-May-07 16:28N 36°58' W 076°09'0 0.0
2018-May-07 15:58N 36°58' W 076°09'0 0.0
2018-May-07 15:28N 36°58' W 076°09'0 0.0
2018-May-07 13:51N 36°58' W 076°09'0 0.0
2018-May-07 13:24N 36°58' W 076°09'0 0.0
2018-May-07 12:45N 36°58' W 076°09'0 0.0
2018-May-07 12:30N 36°58' W 076°09'0 0.0
2018-May-07 11:57N 36°58' W 076°09'0 0.0
2018-May-07 11:30N 36°58' W 076°09'0 0.0
2018-May-07 11:00N 36°58' W 076°09'0 0.0
2018-May-07 10:30N 36°58' W 076°09'6 0.6
2018-May-07 00:36N 36°57' W 076°02'110.9
2018-May-07 00:29N 36°57' W 076°01'510.9
2018-May-07 00:00N 36°57' W 075°54'  
Track history (hours):
 
Tides and Currents Weather Stations Pressure Air Temp Water Temp Dewpoint Dewpoint Depression Visibility Wind Speed Wind Dir Waves Ship Positions

CG Escanaba

Last reported at 2018-May-11 14:55 UTC. Time now 2018-May-21 06:56 UTC.
Position N 42°21' W 071°02'.
Warning: this ship's position is 9 days out of date.

Length 82 m; draft 4.3 m.

Type: Law enforcement. MMSI: 367262000.

Date/timePositionNaut miles runAvg speedWind from/ knotsBaromVisibWave heightAir tempDewpointWater temp
2018-May-11 14:55N 42°21' W 071°02'2 4.5
2018-May-11 14:30N 42°20' W 070°60'4 7.8
2018-May-11 14:00N 42°22' W 070°55'4 9.0
2018-May-11 13:30N 42°24' W 070°50'4310.5
2018-May-11 09:24N 42°23' W 069°51'6 8.3
2018-May-11 08:42N 42°26' W 069°44'2 7.5
2018-May-11 08:24N 42°25' W 069°47'40 5.2
2018-May-11 00:44N 41°45' W 069°37'3 8.8
2018-May-11 00:23N 41°43' W 069°35'11 9.2
2018-May-10 23:09N 41°32' W 069°28'188 7.3
2018-May-09 21:37N 39°51' W 072°56'7 9.5
2018-May-09 20:53N 39°47' W 073°04'812.2
2018-May-09 20:12N 39°42' W 073°13'31 9.0
2018-May-09 16:48N 39°26' W 073°46'1610.5
2018-May-09 15:19N 39°19' W 074°04'512.6
2018-May-09 14:54N 39°14' W 074°05'712.4
2018-May-09 14:20N 39°07' W 074°04'411.8
2018-May-09 13:59N 39°03' W 074°03'3 6.7
2018-May-09 13:29N 39°00' W 074°06'1 1.3
2018-May-09 13:00N 38°60' W 074°06'2 4.6
2018-May-09 12:28N 38°58' W 074°08'510.1
2018-May-09 11:59N 38°56' W 074°13'612.8
2018-May-09 11:30N 38°54' W 074°21'612.2
2018-May-09 11:00N 38°48' W 074°23'610.2
2018-May-09 10:26N 38°43' W 074°24'2511.6
2018-May-09 08:16N 38°18' W 074°30'311.4
2018-May-09 08:00N 38°15' W 074°31'94 9.6
2018-May-08 22:15N 37°01' W 075°44'411.8
2018-May-08 21:55N 36°58' W 075°47'511.3
2018-May-08 21:30N 36°56' W 075°52'611.8
2018-May-08 21:00N 36°56' W 075°60'612.2
2018-May-08 20:30N 36°58' W 076°07'2 3.6
2018-May-08 19:58N 36°58' W 076°09'0 0.0
2018-May-08 19:28N 36°58' W 076°09'0 0.0
2018-May-08 18:58N 36°58' W 076°09'0 0.0
2018-May-08 18:22N 36°58' W 076°09'0 0.0
2018-May-08 17:58N 36°58' W 076°09'0 0.0
2018-May-08 17:28N 36°58' W 076°09'0 0.1
2018-May-08 16:58N 36°58' W 076°09'0 0.0
2018-May-08 14:13N 36°58' W 076°09'0 0.0
2018-May-08 14:01N 36°58' W 076°09'0 0.0
2018-May-08 13:28N 36°58' W 076°09'0 0.0
2018-May-08 12:58N 36°58' W 076°09'0 0.0
2018-May-08 11:43N 36°58' W 076°09'0 0.0
2018-May-08 11:22N 36°58' W 076°09'0 0.0
2018-May-08 10:58N 36°58' W 076°09'0 0.0
2018-May-08 10:28N 36°58' W 076°09'0 0.0
2018-May-08 07:07N 36°58' W 076°09'0 0.1
2018-May-08 06:58N 36°58' W 076°09'0 0.0
2018-May-08 06:16N 36°58' W 076°09'0 0.0
2018-May-08 05:52N 36°58' W 076°09'0 0.0
2018-May-08 05:28N 36°58' W 076°09'0 0.0
2018-May-08 04:37N 36°58' W 076°09'0 0.0
2018-May-08 04:22N 36°58' W 076°09'0 0.0
2018-May-07 23:55N 36°58' W 076°09'0 0.0
2018-May-07 23:28N 36°58' W 076°09'0 0.0
2018-May-07 22:58N 36°58' W 076°09'0 0.0
2018-May-07 22:28N 36°58' W 076°09'0 0.0
2018-May-07 21:58N 36°58' W 076°09'0 0.0
2018-May-07 21:28N 36°58' W 076°09'0 0.0
2018-May-07 20:58N 36°58' W 076°09'0 0.0
2018-May-07 20:28N 36°58' W 076°09'0 0.0
2018-May-07 19:55N 36°58' W 076°09'0 0.0
2018-May-07 19:28N 36°58' W 076°09'0 0.0
2018-May-07 18:58N 36°58' W 076°09'0 0.0
2018-May-07 18:25N 36°58' W 076°09'0 0.0
2018-May-07 17:58N 36°58' W 076°09'0 0.0
2018-May-07 17:28N 36°58' W 076°09'0 0.0
2018-May-07 16:58N 36°58' W 076°09'0 0.0
2018-May-07 16:28N 36°58' W 076°09'0 0.0
2018-May-07 15:58N 36°58' W 076°09'0 0.0
2018-May-07 15:28N 36°58' W 076°09'0 0.0
2018-May-07 13:51N 36°58' W 076°09'0 0.0
2018-May-07 13:24N 36°58' W 076°09'0 0.0
2018-May-07 12:45N 36°58' W 076°09'0 0.0
2018-May-07 12:30N 36°58' W 076°09'0 0.0
2018-May-07 11:57N 36°58' W 076°09'0 0.0
2018-May-07 11:30N 36°58' W 076°09'0 0.0
2018-May-07 11:00N 36°58' W 076°09'0 0.0
2018-May-07 10:30N 36°58' W 076°09'6 0.6
2018-May-07 00:36N 36°57' W 076°02'110.9
2018-May-07 00:29N 36°57' W 076°01'510.9
2018-May-07 00:00N 36°57' W 075°54'  

Dump ship's entire track history